Nearby METAR Reports

 

LEAL - Alicante/El Alte, Spain
Distance from station: SO 52km
Actualización: 18/10/2017 01:30
Despejado
Despejado
 Viento del O
Viento: O 4 km/h
Temperatura: 20°C
Rocío: 19°C
Humedad: 94%
Barómetro: 1019 hPa
Resumen: Despejado
Visibility: greater than 10 km
2017/10/17 23:30 LEAL 172330Z 28002KT CAVOK 20/19 Q1019 NOSIG
LEVC - Valencia (civ/Mi, Spain
Distance from station: NNO 107km
Actualización: 18/10/2017 01:30
Few Clouds
Few Clouds
 Viento del NO
Viento: NO 7 km/h
Temperatura: 21°C
Rocío: 17°C
Humedad: 78%
Barómetro: 1018 hPa
Clouds: Few Clouds
Visibility: 10 km
Cloud details: Few Clouds 762 m
2017/10/17 23:30 LEVC 172330Z 32004KT 9999 FEW025 21/17 Q1018 NOSIG
 
LELC - San Javier(Mil/C, Spain
Distance from station: SO 109km
Actualización: 17/10/2017 23:00
NOT Current
Few Clouds
Few Clouds
 Viento del S
Viento: S 7 km/h
Temperatura: 22°C
Rocío: 18°C
Humedad: 78%
Barómetro: 1019 hPa
Clouds: Few Clouds
Visibility: 10 km
Cloud details: Few Clouds 671 m
2017/10/17 21:00 LELC 172100Z 18004KT 150V210 9999 FEW022 22/18 Q1019 NOSIG
LERI - Alcantarilla(Sp-, Spain
Distance from station: SO 120km
Actualización: 17/10/2017 20:00
NOT Current
Despejado
Despejado
 Viento del varies
Viento: varies 2 km/h
Temperatura: 23°C
Rocío: 16°C
Humedad: 65%
Barómetro: 1019 hPa
Resumen: Despejado
Visibility: greater than 10 km
2017/10/17 18:00 LERI 171800Z VRB01KT CAVOK 23/16 Q1019 NOSIG
 
LEIB - Ibiza/Es Codola, Spain
Distance from station: ENE 131km
Actualización: 18/10/2017 01:30
Parcialmente nuboso
Parcialmente nuboso
 Viento del N
Viento: N 6 km/h
Temperatura: 18°C
Rocío: 16°C
Humedad: 88%
Barómetro: 1019 hPa
Clouds: Parcialmente nuboso
Visibility: 10 km
Cloud details: Parcialmente nuboso 549 m
2017/10/17 23:30 LEIB 172330Z 35003KT 9999 SCT018 18/16 Q1019 NOSIG
LEAB - Albacete (civ/Mi, Spain
Distance from station: ONO 157km
Actualización: 18/10/2017 01:00
Despejado
Despejado
 Viento del S
Viento: S 7 km/h
Temperatura: 16°C
Rocío: 13°C
Humedad: 83%
Barómetro: 1020 hPa
Resumen: Despejado
Visibility: greater than 10 km
2017/10/17 23:00 LEAB 172300Z 17004KT 140V200 CAVOK 16/13 Q1020 NOSIG